Time;durP1;ratioP1;P1;durP2;ratioP2;P2;SDS_P1;SDS_P2;PMS_P1;PMS_P2;Temp;Humidity;BMP_temperature;BMP_pressure;BME280_temperature;BME280_humidity;BME280_pressure;Samples;Min_cycle;Max_cycle;Signal;HPM_P1;HPM_P2
2023/03/16 00:01:03;;;;;;;6.03;2.77;;;;;;;;;;5078242;28;20229;-60
2023/03/16 00:03:32;;;;;;;2.63;2.20;;;;;;;;;;5078143;28;20229;-61
2023/03/16 00:06:00;;;;;;;4.10;2.33;;;;;;;;;;5078044;28;20804;-60
2023/03/16 00:08:28;;;;;;;2.93;2.33;;;;;;;;;;5077925;28;20270;-61
2023/03/16 00:10:56;;;;;;;2.93;2.20;;;;;;;;;;5077841;28;20713;-61
2023/03/16 00:13:25;;;;;;;4.57;2.80;;;;;;;;;;5078441;28;20216;-61
2023/03/16 00:15:55;;;;;;;4.67;2.77;;;;;;;;;;5077905;28;20236;-61
2023/03/16 00:18:25;;;;;;;5.80;2.50;;;;;;;;;;5077945;28;20206;-61
2023/03/16 00:20:55;;;;;;;2.90;2.20;;;;;;;;;;5077800;28;20766;-61
2023/03/16 00:23:26;;;;;;;3.23;2.60;;;;;;;;;;5077906;28;20572;-61
2023/03/16 00:25:54;;;;;;;4.40;2.67;;;;;;;;;;5077946;28;20211;-61
2023/03/16 00:28:22;;;;;;;3.80;3.07;;;;;;;;;;5077935;28;20313;-60
2023/03/16 00:30:51;;;;;;;6.23;3.33;;;;;;;;;;5077635;28;20617;-61
2023/03/16 00:33:21;;;;;;;3.70;2.57;;;;;;;;;;5078002;28;20233;-60
2023/03/16 00:35:49;;;;;;;6.03;3.97;;;;;;;;;;5078083;28;20206;-61
2023/03/16 00:38:18;;;;;;;7.57;3.97;;;;;;;;;;5078052;28;20237;-61
2023/03/16 00:40:46;;;;;;;5.23;2.90;;;;;;;;;;5077373;28;20253;-61
2023/03/16 00:43:17;;;;;;;5.83;3.17;;;;;;;;;;5077978;28;20209;-61
2023/03/16 00:45:45;;;;;;;7.83;3.67;;;;;;;;;;5077516;28;20241;-61
2023/03/16 00:48:13;;;;;;;6.77;3.90;;;;;;;;;;5077570;28;20309;-61
2023/03/16 00:50:43;;;;;;;6.40;3.47;;;;;;;;;;5077860;28;20226;-61
2023/03/16 00:53:11;;;;;;;6.07;3.37;;;;;;;;;;5077848;28;20293;-61
2023/03/16 00:55:38;;;;;;;6.87;3.60;;;;;;;;;;5077226;28;20206;-61
2023/03/16 00:58:06;;;;;;;6.77;3.70;;;;;;;;;;5077808;28;20202;-61
2023/03/16 01:00:35;;;;;;;6.77;3.93;;;;;;;;;;5077658;28;20226;-61
2023/03/16 01:03:03;;;;;;;5.03;3.67;;;;;;;;;;5077759;28;20234;-61
2023/03/16 01:05:32;;;;;;;4.60;3.70;;;;;;;;;;5077374;28;20210;-61
2023/03/16 01:08:03;;;;;;;5.77;3.50;;;;;;;;;;5077732;28;20264;-61
2023/03/16 01:10:31;;;;;;;6.87;3.90;;;;;;;;;;5079429;28;20246;-61
2023/03/16 01:12:59;;;;;;;5.93;3.47;;;;;;;;;;5081757;28;20587;-61
2023/03/16 01:15:26;;;;;;;14.33;8.37;;;;;;;;;;5081512;28;20210;-61
2023/03/16 01:17:54;;;;;;;18.13;8.53;;;;;;;;;;5081478;28;20673;-61
2023/03/16 01:20:23;;;;;;;6.90;3.77;;;;;;;;;;5081619;28;20233;-61
2023/03/16 01:22:51;;;;;;;5.77;3.30;;;;;;;;;;5081250;28;20233;-60
2023/03/16 01:25:20;;;;;;;7.50;3.57;;;;;;;;;;5081352;28;20206;-61
2023/03/16 01:27:48;;;;;;;4.10;3.10;;;;;;;;;;5081339;28;20236;-61
2023/03/16 01:30:16;;;;;;;4.47;3.37;;;;;;;;;;5081465;28;20257;-61
2023/03/16 01:32:44;;;;;;;5.47;3.73;;;;;;;;;;5081260;28;20293;-61
2023/03/16 01:35:12;;;;;;;6.73;3.73;;;;;;;;;;5081494;28;20236;-60
2023/03/16 01:37:40;;;;;;;4.63;3.10;;;;;;;;;;5081257;28;20259;-60
2023/03/16 01:40:11;;;;;;;4.30;3.20;;;;;;;;;;5080706;28;20238;-60
2023/03/16 01:42:47;;;;;;;5.40;3.30;;;;;;;;;;5081273;28;20202;-61
2023/03/16 01:45:33;;;;;;;7.17;3.97;;;;;;;;;;5081305;28;20237;-60
2023/03/16 01:48:01;;;;;;;6.47;3.70;;;;;;;;;;5080903;28;20230;-61
2023/03/16 01:50:30;;;;;;;5.47;3.47;;;;;;;;;;5080845;28;20320;-60
2023/03/16 01:52:58;;;;;;;5.07;3.47;;;;;;;;;;5080942;28;20305;-61
2023/03/16 01:55:26;;;;;;;7.23;3.93;;;;;;;;;;5080735;28;20264;-61
2023/03/16 01:57:55;;;;;;;4.80;3.30;;;;;;;;;;5080573;28;20217;-60
2023/03/16 02:00:30;;;;;;;6.53;3.60;;;;;;;;;;5080595;28;20240;-60
2023/03/16 02:03:00;;;;;;;6.70;3.67;;;;;;;;;;5080748;28;20216;-61
2023/03/16 02:05:32;;;;;;;6.23;3.10;;;;;;;;;;5080559;28;20255;-61
2023/03/16 02:08:02;;;;;;;6.43;3.70;;;;;;;;;;5080770;28;20289;-61
2023/03/16 02:10:30;;;;;;;4.63;3.30;;;;;;;;;;5079908;28;20329;-60
2023/03/16 02:12:59;;;;;;;5.50;3.17;;;;;;;;;;5080675;28;20213;-61
2023/03/16 02:15:27;;;;;;;4.57;3.27;;;;;;;;;;5080252;28;20567;-61
2023/03/16 02:17:56;;;;;;;5.83;3.43;;;;;;;;;;5080408;28;20202;-61
2023/03/16 02:20:28;;;;;;;6.57;3.33;;;;;;;;;;5079869;28;20296;-61
2023/03/16 02:22:58;;;;;;;3.60;3.03;;;;;;;;;;5080106;28;20212;-61
2023/03/16 02:25:28;;;;;;;6.13;3.80;;;;;;;;;;5080198;28;20206;-60
2023/03/16 02:28:03;;;;;;;3.70;2.87;;;;;;;;;;5080273;28;20260;-61
2023/03/16 02:30:32;;;;;;;5.13;3.47;;;;;;;;;;5080367;28;20232;-60
2023/03/16 02:33:00;;;;;;;3.87;2.57;;;;;;;;;;5079909;28;20206;-60
2023/03/16 02:35:28;;;;;;;4.77;3.00;;;;;;;;;;5080303;28;20217;-61
2023/03/16 02:37:56;;;;;;;5.43;3.00;;;;;;;;;;5080164;28;20213;-60
2023/03/16 02:40:25;;;;;;;4.50;2.73;;;;;;;;;;5079856;28;20233;-60
2023/03/16 02:42:56;;;;;;;3.43;2.70;;;;;;;;;;5079819;28;20692;-61
2023/03/16 02:45:25;;;;;;;4.40;2.87;;;;;;;;;;5079826;28;20232;-60
2023/03/16 02:47:55;;;;;;;3.83;2.60;;;;;;;;;;5084996;28;20221;-61
2023/03/16 02:50:23;;;;;;;4.10;3.10;;;;;;;;;;5100165;28;20232;-61
2023/03/16 02:52:50;;;;;;;5.97;3.33;;;;;;;;;;5099891;28;20572;-61
2023/03/16 02:55:20;;;;;;;5.37;3.40;;;;;;;;;;5096363;28;20237;-61
2023/03/16 02:57:48;;;;;;;6.30;2.90;;;;;;;;;;5079890;28;20205;-61
2023/03/16 03:00:17;;;;;;;4.90;3.33;;;;;;;;;;5079378;28;20241;-61
2023/03/16 03:02:46;;;;;;;4.23;3.37;;;;;;;;;;5079835;28;20249;-61
2023/03/16 03:05:15;;;;;;;7.23;3.30;;;;;;;;;;5079402;28;20683;-61
2023/03/16 03:07:44;;;;;;;4.80;3.30;;;;;;;;;;5080851;28;20206;-61
2023/03/16 03:10:12;;;;;;;7.20;4.00;;;;;;;;;;5079995;28;20254;-61
2023/03/16 03:12:41;;;;;;;5.27;3.30;;;;;;;;;;5079671;28;20214;-61
2023/03/16 03:15:10;;;;;;;7.27;3.80;;;;;;;;;;5079591;28;20234;-61
2023/03/16 03:17:41;;;;;;;9.63;4.03;;;;;;;;;;5079266;28;20242;-61
2023/03/16 03:20:14;;;;;;;7.30;3.80;;;;;;;;;;5079478;28;20230;-61
2023/03/16 03:22:48;;;;;;;6.47;4.03;;;;;;;;;;5079408;28;20210;-60
2023/03/16 03:25:17;;;;;;;7.60;4.27;;;;;;;;;;5079201;28;20214;-60
2023/03/16 03:27:46;;;;;;;9.27;4.53;;;;;;;;;;5078957;28;20555;-61
2023/03/16 03:30:16;;;;;;;9.67;3.97;;;;;;;;;;5079119;28;20226;-61
2023/03/16 03:32:44;;;;;;;8.13;3.97;;;;;;;;;;5078424;28;20265;-61
2023/03/16 03:35:13;;;;;;;7.17;3.80;;;;;;;;;;5079247;28;20392;-61
2023/03/16 03:37:43;;;;;;;6.93;3.93;;;;;;;;;;5079178;28;20210;-60
2023/03/16 03:40:14;;;;;;;7.07;4.20;;;;;;;;;;5078335;28;20234;-61
2023/03/16 03:42:43;;;;;;;6.63;4.00;;;;;;;;;;5078344;28;20234;-60
2023/03/16 03:45:11;;;;;;;8.77;4.10;;;;;;;;;;5078668;28;20288;-61
2023/03/16 03:47:40;;;;;;;7.67;4.23;;;;;;;;;;5077348;28;20708;-61
2023/03/16 03:50:08;;;;;;;7.07;3.73;;;;;;;;;;5078679;28;20225;-61
2023/03/16 03:52:36;;;;;;;4.83;3.47;;;;;;;;;;5078426;28;20228;-61
2023/03/16 03:55:05;;;;;;;9.90;3.63;;;;;;;;;;5078009;28;20202;-60
2023/03/16 03:57:34;;;;;;;5.27;3.60;;;;;;;;;;5078417;28;20240;-60
2023/03/16 04:00:03;;;;;;;6.67;3.40;;;;;;;;;;5078597;28;20304;-60
2023/03/16 04:02:31;;;;;;;7.13;4.00;;;;;;;;;;5078371;28;20210;-60
2023/03/16 04:04:59;;;;;;;5.77;3.77;;;;;;;;;;5077882;28;20210;-60
2023/03/16 04:07:27;;;;;;;8.87;3.60;;;;;;;;;;5078251;28;20206;-60
2023/03/16 04:09:55;;;;;;;6.50;3.87;;;;;;;;;;5077552;28;21045;-60
2023/03/16 04:12:23;;;;;;;4.53;3.63;;;;;;;;;;5078137;28;20209;-60
2023/03/16 04:14:52;;;;;;;6.60;3.73;;;;;;;;;;5078382;28;20216;-61
2023/03/16 04:17:21;;;;;;;6.23;3.00;;;;;;;;;;5078239;28;20209;-61
2023/03/16 04:19:49;;;;;;;5.03;3.13;;;;;;;;;;5078295;28;20218;-61
2023/03/16 04:22:17;;;;;;;5.23;3.53;;;;;;;;;;5078295;28;20212;-61
2023/03/16 04:24:45;;;;;;;4.97;3.30;;;;;;;;;;5077941;28;20241;-61
2023/03/16 04:27:13;;;;;;;6.37;3.60;;;;;;;;;;5078326;28;20206;-61
2023/03/16 04:29:41;;;;;;;6.87;4.00;;;;;;;;;;5077974;28;20227;-61
2023/03/16 04:32:10;;;;;;;5.17;3.67;;;;;;;;;;5077794;28;20202;-61
2023/03/16 04:34:42;;;;;;;7.47;3.37;;;;;;;;;;5078068;28;20233;-61
2023/03/16 04:37:10;;;;;;;5.70;3.50;;;;;;;;;;5077979;28;20210;-61
2023/03/16 04:39:38;;;;;;;5.13;3.10;;;;;;;;;;5077662;28;20230;-61
2023/03/16 04:42:06;;;;;;;6.50;3.20;;;;;;;;;;5078173;28;20206;-60
2023/03/16 04:44:43;;;;;;;4.47;3.00;;;;;;;;;;5077974;28;20202;-61
2023/03/16 04:47:13;;;;;;;4.00;3.00;;;;;;;;;;5077529;28;20644;-61
2023/03/16 04:49:41;;;;;;;5.70;2.87;;;;;;;;;;5077838;28;20317;-61
2023/03/16 04:52:09;;;;;;;5.43;3.33;;;;;;;;;;5077850;28;20202;-61
2023/03/16 04:54:37;;;;;;;6.13;3.50;;;;;;;;;;5077757;28;20221;-61
2023/03/16 04:57:07;;;;;;;4.60;2.87;;;;;;;;;;5077581;28;20202;-61
2023/03/16 04:59:35;;;;;;;3.77;2.73;;;;;;;;;;5077538;28;20233;-61
2023/03/16 05:02:03;;;;;;;6.80;2.87;;;;;;;;;;5077476;28;20567;-61
2023/03/16 05:04:33;;;;;;;5.47;2.60;;;;;;;;;;5077806;28;20216;-61
2023/03/16 05:07:01;;;;;;;4.23;2.13;;;;;;;;;;5077506;28;20241;-61
2023/03/16 05:09:29;;;;;;;3.97;2.73;;;;;;;;;;5077146;28;20237;-61
2023/03/16 05:11:57;;;;;;;5.33;2.27;;;;;;;;;;5077467;28;20575;-61
2023/03/16 05:14:25;;;;;;;2.57;2.23;;;;;;;;;;5077699;28;20206;-61
2023/03/16 05:16:52;;;;;;;4.37;2.47;;;;;;;;;;5077241;28;20210;-61
2023/03/16 05:19:20;;;;;;;4.83;2.43;;;;;;;;;;5077347;28;20745;-60
2023/03/16 05:21:50;;;;;;;3.77;2.50;;;;;;;;;;5077303;28;20574;-61
2023/03/16 05:24:18;;;;;;;3.53;2.37;;;;;;;;;;5068736;28;20671;-61
2023/03/16 05:26:46;;;;;;;3.53;2.17;;;;;;;;;;5077254;28;20209;-61
2023/03/16 05:29:14;;;;;;;5.07;2.50;;;;;;;;;;5077139;28;20736;-61
2023/03/16 05:31:42;;;;;;;4.77;2.40;;;;;;;;;;5077417;28;20213;-61
2023/03/16 05:34:09;;;;;;;5.33;2.40;;;;;;;;;;5077286;28;20206;-60
2023/03/16 05:36:38;;;;;;;3.80;2.50;;;;;;;;;;5077415;28;20220;-61
2023/03/16 05:39:08;;;;;;;2.70;2.07;;;;;;;;;;5077262;28;20316;-61
2023/03/16 05:41:36;;;;;;;2.57;2.20;;;;;;;;;;5076459;28;20198;-61
2023/03/16 05:44:04;;;;;;;2.60;2.33;;;;;;;;;;5091860;28;20213;-61
2023/03/16 05:46:32;;;;;;;5.03;2.37;;;;;;;;;;5097565;28;20218;-61
2023/03/16 05:49:00;;;;;;;2.40;2.00;;;;;;;;;;5097106;28;20715;-61
2023/03/16 05:51:28;;;;;;;3.47;2.23;;;;;;;;;;5097427;28;20259;-61
2023/03/16 05:53:56;;;;;;;2.50;2.07;;;;;;;;;;5097486;28;20209;-61
2023/03/16 05:56:26;;;;;;;2.00;1.80;;;;;;;;;;5086566;28;20206;-61
2023/03/16 05:58:55;;;;;;;3.07;1.90;;;;;;;;;;5080937;28;20285;-61
2023/03/16 06:01:23;;;;;;;4.40;2.03;;;;;;;;;;5080498;28;20289;-61
2023/03/16 06:03:51;;;;;;;3.87;2.37;;;;;;;;;;5080510;28;20669;-61
2023/03/16 06:06:21;;;;;;;3.33;2.40;;;;;;;;;;5079447;28;20653;-61
2023/03/16 06:08:49;;;;;;;4.57;2.00;;;;;;;;;;5079364;28;20253;-61
2023/03/16 06:11:18;;;;;;;3.00;2.20;;;;;;;;;;5080610;28;20226;-61
2023/03/16 06:13:48;;;;;;;2.60;2.20;;;;;;;;;;5081921;28;20270;-61
2023/03/16 06:16:23;;;;;;;5.70;2.97;;;;;;;;;;5079614;28;20575;-61
2023/03/16 06:18:53;;;;;;;7.50;2.50;;;;;;;;;;5077396;28;20257;-61
2023/03/16 06:21:26;;;;;;;6.37;2.77;;;;;;;;;;5080444;28;20202;-61
2023/03/16 06:23:54;;;;;;;4.53;2.97;;;;;;;;;;5080881;28;20628;-61
2023/03/16 06:26:22;;;;;;;9.37;3.23;;;;;;;;;;5081284;28;20297;-61
2023/03/16 06:28:52;;;;;;;3.07;2.60;;;;;;;;;;5086509;28;21636;-60
2023/03/16 06:31:20;;;;;;;5.83;3.03;;;;;;;;;;5080129;28;20226;-61
2023/03/16 06:33:48;;;;;;;7.67;2.70;;;;;;;;;;5080068;28;20210;-61
2023/03/16 06:36:16;;;;;;;5.80;2.70;;;;;;;;;;5079936;28;20732;-61
2023/03/16 06:38:43;;;;;;;6.07;3.00;;;;;;;;;;5079833;28;20260;-62
2023/03/16 06:41:11;;;;;;;5.97;2.97;;;;;;;;;;5079862;28;20268;-61
2023/03/16 06:43:39;;;;;;;3.53;2.83;;;;;;;;;;5080024;28;20211;-61
2023/03/16 06:46:09;;;;;;;11.70;3.47;;;;;;;;;;5079458;28;20203;-61
2023/03/16 06:48:37;;;;;;;5.03;3.40;;;;;;;;;;5080011;28;20210;-61
2023/03/16 06:51:06;;;;;;;8.63;3.77;;;;;;;;;;5079684;28;20230;-61
2023/03/16 06:53:34;;;;;;;6.30;2.70;;;;;;;;;;5079769;28;20221;-61
2023/03/16 06:56:02;;;;;;;4.17;3.23;;;;;;;;;;5079306;28;20633;-61
2023/03/16 06:58:31;;;;;;;4.73;2.83;;;;;;;;;;5079498;28;20639;-61
2023/03/16 07:01:01;;;;;;;4.77;2.90;;;;;;;;;;5079676;28;20268;-61
2023/03/16 07:03:30;;;;;;;5.10;2.67;;;;;;;;;;5079945;28;20221;-61
2023/03/16 07:05:58;;;;;;;5.47;2.87;;;;;;;;;;5079735;28;20222;-61
2023/03/16 07:08:26;;;;;;;4.63;3.13;;;;;;;;;;5077974;28;20206;-61
2023/03/16 07:10:54;;;;;;;4.07;2.73;;;;;;;;;;5079189;28;20234;-61
2023/03/16 07:13:22;;;;;;;4.00;3.00;;;;;;;;;;5079319;28;20293;-60
2023/03/16 07:15:51;;;;;;;5.17;2.67;;;;;;;;;;5079349;28;20220;-61
2023/03/16 07:18:19;;;;;;;2.90;2.60;;;;;;;;;;5079238;28;20576;-61
2023/03/16 07:20:48;;;;;;;7.90;2.77;;;;;;;;;;5078907;28;20225;-61
2023/03/16 07:23:16;;;;;;;5.30;2.90;;;;;;;;;;5079240;28;20245;-61
2023/03/16 07:25:44;;;;;;;4.27;2.53;;;;;;;;;;5079107;28;20218;-61
2023/03/16 07:28:12;;;;;;;10.37;3.37;;;;;;;;;;5078795;28;20217;-60
2023/03/16 07:30:40;;;;;;;12.63;3.30;;;;;;;;;;5078979;28;20290;-61
2023/03/16 07:33:27;;;;;;;6.83;3.10;;;;;;;;;;5079337;28;20198;-61
2023/03/16 07:35:56;;;;;;;5.20;2.80;;;;;;;;;;5080707;28;20237;-61
2023/03/16 07:38:24;;;;;;;5.30;3.13;;;;;;;;;;5099140;28;20205;-62
2023/03/16 07:40:52;;;;;;;6.53;3.20;;;;;;;;;;5082140;28;20301;-60
2023/03/16 07:43:20;;;;;;;5.53;3.20;;;;;;;;;;5078967;28;20206;-60
2023/03/16 07:45:48;;;;;;;9.03;3.90;;;;;;;;;;5078461;28;20229;-60
2023/03/16 07:48:16;;;;;;;6.83;3.87;;;;;;;;;;5078408;28;20205;-61
2023/03/16 07:50:44;;;;;;;5.37;3.50;;;;;;;;;;5078533;28;20317;-62
2023/03/16 07:53:14;;;;;;;3.77;3.20;;;;;;;;;;5078809;28;20206;-61
2023/03/16 07:55:42;;;;;;;5.80;3.63;;;;;;;;;;5077953;28;20312;-61
2023/03/16 07:58:10;;;;;;;4.67;3.20;;;;;;;;;;5078473;28;20217;-61
2023/03/16 08:00:39;;;;;;;5.77;3.50;;;;;;;;;;5078002;28;20245;-61
2023/03/16 08:03:07;;;;;;;6.13;3.70;;;;;;;;;;5078083;28;20206;-61
2023/03/16 08:05:35;;;;;;;5.23;4.20;;;;;;;;;;5078334;28;20206;-61
2023/03/16 08:08:03;;;;;;;7.53;3.60;;;;;;;;;;5078393;28;20232;-61
2023/03/16 08:10:32;;;;;;;5.83;3.20;;;;;;;;;;5077604;28;20238;-61
2023/03/16 08:13:00;;;;;;;6.87;3.60;;;;;;;;;;5078315;28;20210;-61
2023/03/16 08:15:28;;;;;;;4.37;3.20;;;;;;;;;;5078239;28;20210;-61
2023/03/16 08:17:59;;;;;;;9.90;3.40;;;;;;;;;;5077969;28;20214;-61
2023/03/16 08:20:27;;;;;;;3.40;2.63;;;;;;;;;;5077977;28;20226;-61
2023/03/16 08:22:55;;;;;;;6.80;3.40;;;;;;;;;;5078014;28;20222;-61
2023/03/16 08:25:23;;;;;;;5.57;3.40;;;;;;;;;;5076641;28;20292;-61
2023/03/16 08:27:52;;;;;;;5.43;3.43;;;;;;;;;;5078473;28;20198;-61
2023/03/16 08:30:21;;;;;;;7.67;3.53;;;;;;;;;;5076453;28;20228;-61
2023/03/16 08:32:49;;;;;;;5.30;2.93;;;;;;;;;;5076507;28;20218;-62
2023/03/16 08:35:17;;;;;;;12.00;3.83;;;;;;;;;;5066869;28;20228;-61
2023/03/16 08:37:46;;;;;;;6.73;3.70;;;;;;;;;;5077681;28;20225;-61
2023/03/16 08:40:15;;;;;;;6.27;4.00;;;;;;;;;;5072452;28;20222;-62
2023/03/16 08:42:44;;;;;;;8.20;4.13;;;;;;;;;;5077865;28;20206;-60
2023/03/16 08:45:13;;;;;;;7.53;4.77;;;;;;;;;;5077855;28;20264;-61
2023/03/16 08:47:41;;;;;;;9.03;5.13;;;;;;;;;;5077691;28;20202;-60
2023/03/16 08:50:11;;;;;;;5.97;3.83;;;;;;;;;;5077787;28;20309;-60
2023/03/16 08:52:39;;;;;;;5.77;3.73;;;;;;;;;;5077605;28;20222;-61
2023/03/16 08:55:09;;;;;;;3.57;2.77;;;;;;;;;;5077490;28;20241;-61
2023/03/16 08:57:38;;;;;;;4.30;2.97;;;;;;;;;;5077215;28;20209;-60
2023/03/16 09:00:11;;;;;;;4.13;2.63;;;;;;;;;;5077630;28;20593;-60
2023/03/16 09:02:41;;;;;;;4.70;2.80;;;;;;;;;;5076982;28;20202;-61
2023/03/16 09:05:10;;;;;;;3.47;2.53;;;;;;;;;;5076582;28;20218;-60
2023/03/16 09:07:38;;;;;;;4.00;2.10;;;;;;;;;;5077781;28;20210;-61
2023/03/16 09:10:06;;;;;;;3.60;2.47;;;;;;;;;;5076937;28;20249;-60
2023/03/16 09:12:36;;;;;;;3.83;1.90;;;;;;;;;;5077333;28;20276;-60
2023/03/16 09:15:04;;;;;;;4.03;2.20;;;;;;;;;;5077360;28;20217;-61
2023/03/16 09:17:32;;;;;;;4.47;2.27;;;;;;;;;;5077124;28;20749;-62
2023/03/16 09:20:02;;;;;;;3.93;1.90;;;;;;;;;;5072629;28;20266;-61
2023/03/16 09:22:48;;;;;;;6.20;2.17;;;;;;;;;;5077141;28;20209;-60
2023/03/16 09:25:16;;;;;;;1.97;1.87;;;;;;;;;;5073244;28;20194;-60
2023/03/16 09:27:45;;;;;;;5.23;2.10;;;;;;;;;;5076910;28;20576;-61
2023/03/16 09:30:14;;;;;;;3.97;2.33;;;;;;;;;;5073370;28;20229;-61
2023/03/16 09:32:42;;;;;;;2.70;1.40;;;;;;;;;;5081062;28;20261;-60
2023/03/16 09:35:11;;;;;;;1.40;1.30;;;;;;;;;;5080956;28;20654;-60
2023/03/16 09:37:39;;;;;;;1.60;1.50;;;;;;;;;;5081046;28;20284;-60
2023/03/16 09:40:21;;;;;;;3.80;1.80;;;;;;;;;;5081590;28;20229;-60
2023/03/16 09:42:53;;;;;;;1.63;1.47;;;;;;;;;;5079755;28;20195;-61
2023/03/16 09:45:26;;;;;;;5.80;1.87;;;;;;;;;;5080150;28;20301;-61
2023/03/16 09:47:57;;;;;;;1.33;1.23;;;;;;;;;;5081170;28;20572;-61
2023/03/16 09:50:27;;;;;;;1.67;1.23;;;;;;;;;;5077558;28;20603;-61
2023/03/16 09:53:17;;;;;;;1.83;1.30;;;;;;;;;;5080172;28;20692;-61
2023/03/16 09:55:47;;;;;;;2.53;1.40;;;;;;;;;;5077097;28;20288;-61
2023/03/16 09:58:17;;;;;;;1.70;1.57;;;;;;;;;;5080024;28;20237;-60
2023/03/16 10:00:51;;;;;;;2.27;1.70;;;;;;;;;;5078628;28;20287;-60
2023/03/16 10:03:28;;;;;;;2.03;1.30;;;;;;;;;;5077218;28;20285;-61
2023/03/16 10:06:00;;;;;;;2.03;1.83;;;;;;;;;;5067685;28;20277;-61
2023/03/16 10:08:31;;;;;;;3.07;1.43;;;;;;;;;;5095894;28;20247;-61
2023/03/16 10:11:05;;;;;;;2.83;1.33;;;;;;;;;;5100539;28;20260;-61
2023/03/16 10:13:37;;;;;;;3.37;1.73;;;;;;;;;;5080912;28;20561;-60
2023/03/16 10:16:09;;;;;;;1.43;1.33;;;;;;;;;;5084845;28;20222;-60
2023/03/16 10:18:41;;;;;;;5.60;1.70;;;;;;;;;;5068966;28;20232;-60
2023/03/16 10:21:14;;;;;;;1.87;1.40;;;;;;;;;;5079744;28;20226;-60
2023/03/16 10:23:42;;;;;;;3.33;1.43;;;;;;;;;;5080045;28;20213;-61
2023/03/16 10:26:13;;;;;;;1.80;1.27;;;;;;;;;;5079573;28;20210;-60
2023/03/16 10:28:42;;;;;;;2.47;1.27;;;;;;;;;;5080286;28;20292;-60
2023/03/16 10:31:11;;;;;;;1.33;1.23;;;;;;;;;;5080174;28;20237;-60
2023/03/16 10:33:39;;;;;;;1.13;1.13;;;;;;;;;;5079887;28;20693;-60
2023/03/16 10:36:18;;;;;;;1.43;1.30;;;;;;;;;;5080063;28;20206;-61
2023/03/16 10:38:48;;;;;;;3.27;1.10;;;;;;;;;;5076925;28;20194;-61
2023/03/16 10:41:20;;;;;;;1.63;1.53;;;;;;;;;;5078839;28;20226;-61
2023/03/16 10:43:50;;;;;;;1.50;1.30;;;;;;;;;;5073767;28;20215;-60
2023/03/16 10:46:18;;;;;;;2.90;1.30;;;;;;;;;;5074553;28;20197;-61
2023/03/16 10:48:51;;;;;;;1.23;1.10;;;;;;;;;;5079744;28;20206;-60
2023/03/16 10:51:24;;;;;;;2.10;1.10;;;;;;;;;;5079577;28;20260;-60
2023/03/16 10:53:52;;;;;;;2.10;1.07;;;;;;;;;;5076515;28;20250;-61
2023/03/16 10:56:21;;;;;;;3.10;1.73;;;;;;;;;;5079383;28;20202;-61
2023/03/16 10:58:49;;;;;;;2.17;1.30;;;;;;;;;;5085508;28;20352;-60
2023/03/16 11:01:19;;;;;;;2.93;1.60;;;;;;;;;;5079397;28;20214;-60
2023/03/16 11:03:49;;;;;;;4.30;2.03;;;;;;;;;;5067846;28;20207;-60
2023/03/16 11:06:21;;;;;;;2.57;1.80;;;;;;;;;;5077582;28;20537;-59
2023/03/16 11:08:51;;;;;;;6.63;1.50;;;;;;;;;;5075848;28;20300;-60
2023/03/16 11:11:24;;;;;;;1.70;1.37;;;;;;;;;;5078044;28;20202;-60
2023/03/16 11:13:55;;;;;;;1.47;1.37;;;;;;;;;;5078953;28;20253;-60
2023/03/16 11:16:25;;;;;;;3.73;1.43;;;;;;;;;;5078773;28;20205;-60
2023/03/16 11:18:55;;;;;;;2.27;1.50;;;;;;;;;;5084233;28;20274;-60
2023/03/16 11:21:30;;;;;;;1.70;1.10;;;;;;;;;;5089299;28;20206;-60
2023/03/16 11:24:03;;;;;;;1.30;1.20;;;;;;;;;;5068302;28;20202;-61
2023/03/16 11:26:33;;;;;;;1.23;1.13;;;;;;;;;;5078939;28;20293;-60
2023/03/16 11:29:08;;;;;;;0.90;0.90;;;;;;;;;;5078399;28;20657;-60
2023/03/16 11:31:41;;;;;;;8.47;6.20;;;;;;;;;;5078694;28;20212;-61
2023/03/16 11:34:14;;;;;;;1.60;1.50;;;;;;;;;;5078431;28;20230;-60
2023/03/16 11:36:44;;;;;;;3.13;1.40;;;;;;;;;;5078687;28;20210;-60
2023/03/16 11:39:21;;;;;;;2.30;1.10;;;;;;;;;;5078410;28;20210;-61
2023/03/16 11:41:57;;;;;;;2.40;1.17;;;;;;;;;;5066408;28;20214;-60
2023/03/16 11:44:28;;;;;;;1.43;1.10;;;;;;;;;;5078475;28;20289;-61
2023/03/16 11:47:00;;;;;;;1.67;0.93;;;;;;;;;;5078547;28;20238;-61
2023/03/16 11:49:41;;;;;;;1.27;1.17;;;;;;;;;;5078593;28;20246;-60
2023/03/16 11:52:13;;;;;;;1.73;1.33;;;;;;;;;;5078499;28;20209;-60
2023/03/16 11:54:49;;;;;;;1.77;1.20;;;;;;;;;;5064501;28;20292;-61
2023/03/16 11:57:23;;;;;;;1.97;1.23;;;;;;;;;;5078414;28;20202;-60
2023/03/16 11:59:59;;;;;;;2.07;1.20;;;;;;;;;;5078575;28;20230;-60
2023/03/16 12:02:45;;;;;;;1.17;1.00;;;;;;;;;;5078087;28;20206;-59
2023/03/16 12:05:34;;;;;;;1.30;1.20;;;;;;;;;;5078330;28;20202;-60
2023/03/16 12:08:07;;;;;;;3.20;1.07;;;;;;;;;;5078442;28;20210;-60
2023/03/16 12:10:38;;;;;;;1.50;1.23;;;;;;;;;;5072958;28;20265;-60
2023/03/16 12:13:13;;;;;;;2.10;1.00;;;;;;;;;;5078138;28;20257;-60
2023/03/16 12:15:43;;;;;;;1.60;0.90;;;;;;;;;;5078383;28;20223;-60
2023/03/16 12:18:15;;;;;;;1.83;0.80;;;;;;;;;;5077918;28;20735;-60
2023/03/16 12:20:46;;;;;;;1.00;1.00;;;;;;;;;;5077892;28;20289;-60
2023/03/16 12:23:18;;;;;;;1.83;1.03;;;;;;;;;;5077838;28;20252;-60
2023/03/16 12:25:48;;;;;;;1.60;1.00;;;;;;;;;;5078142;28;20216;-59
2023/03/16 12:28:18;;;;;;;2.23;1.20;;;;;;;;;;5077740;28;20206;-60
2023/03/16 12:30:50;;;;;;;2.70;1.00;;;;;;;;;;5077853;28;20227;-61
2023/03/16 12:33:22;;;;;;;2.60;0.77;;;;;;;;;;5077676;28;20258;-61
2023/03/16 12:35:55;;;;;;;3.27;0.97;;;;;;;;;;5077782;28;20209;-60
2023/03/16 12:38:36;;;;;;;2.73;1.00;;;;;;;;;;5078023;28;20206;-61
2023/03/16 12:41:13;;;;;;;1.73;0.80;;;;;;;;;;5077576;28;20237;-60
2023/03/16 12:43:52;;;;;;;4.40;3.43;;;;;;;;;;5077745;28;20202;-60
2023/03/16 12:46:26;;;;;;;1.57;0.83;;;;;;;;;;5077768;28;20209;-60
2023/03/16 12:48:56;;;;;;;2.27;1.10;;;;;;;;;;5077621;28;20260;-59
2023/03/16 12:51:32;;;;;;;1.00;0.87;;;;;;;;;;5077655;28;20209;-60
2023/03/16 12:54:00;;;;;;;1.30;1.10;;;;;;;;;;5070815;28;20247;-60
2023/03/16 12:56:31;;;;;;;2.27;0.93;;;;;;;;;;5077646;28;20240;-60
2023/03/16 12:59:01;;;;;;;3.20;1.10;;;;;;;;;;5085646;28;20698;-61
2023/03/16 13:01:30;;;;;;;0.83;0.83;;;;;;;;;;5097450;28;20672;-61
2023/03/16 13:04:02;;;;;;;0.80;0.80;;;;;;;;;;5097980;28;20228;-60
2023/03/16 13:06:32;;;;;;;0.73;0.60;;;;;;;;;;5100364;28;20205;-60
2023/03/16 13:09:04;;;;;;;1.40;1.30;;;;;;;;;;5101657;28;20233;-61
2023/03/16 13:11:42;;;;;;;1.63;1.10;;;;;;;;;;5101995;28;20231;-61
2023/03/16 13:14:15;;;;;;;1.07;0.97;;;;;;;;;;5101942;28;20239;-61
2023/03/16 13:16:44;;;;;;;1.07;1.00;;;;;;;;;;5101543;28;20201;-61
2023/03/16 13:19:26;;;;;;;3.07;1.10;;;;;;;;;;5101623;28;20288;-61
2023/03/16 13:22:02;;;;;;;0.60;0.53;;;;;;;;;;5101388;28;20206;-60
2023/03/16 13:24:40;;;;;;;0.93;0.80;;;;;;;;;;5076565;28;20197;-61
2023/03/16 13:27:19;;;;;;;1.33;0.90;;;;;;;;;;5081529;28;20232;-62
2023/03/16 13:29:53;;;;;;;3.93;1.03;;;;;;;;;;5081141;28;20222;-61
2023/03/16 13:32:21;;;;;;;1.17;0.80;;;;;;;;;;5081314;28;20216;-62
2023/03/16 13:34:50;;;;;;;2.13;1.00;;;;;;;;;;5081334;28;20226;-62
2023/03/16 13:37:20;;;;;;;1.33;0.80;;;;;;;;;;5081026;28;20645;-61
2023/03/16 13:39:52;;;;;;;3.80;0.80;;;;;;;;;;5080686;28;20249;-62
2023/03/16 13:42:23;;;;;;;2.10;1.00;;;;;;;;;;5079332;28;20210;-61
2023/03/16 13:44:55;;;;;;;1.13;0.83;;;;;;;;;;5078899;28;20226;-62
2023/03/16 13:47:25;;;;;;;1.03;0.80;;;;;;;;;;5080711;28;20245;-61
2023/03/16 13:49:56;;;;;;;0.47;0.47;;;;;;;;;;5081252;28;20234;-61
2023/03/16 13:52:26;;;;;;;0.60;0.60;;;;;;;;;;5080875;28;20217;-61
2023/03/16 13:54:55;;;;;;;5.30;0.90;;;;;;;;;;5080606;28;20258;-61
2023/03/16 13:57:25;;;;;;;2.93;0.97;;;;;;;;;;5073806;28;20234;-62
2023/03/16 14:00:01;;;;;;;0.83;0.83;;;;;;;;;;5080900;28;20269;-62
2023/03/16 14:02:29;;;;;;;1.73;0.90;;;;;;;;;;5080713;28;20292;-61
2023/03/16 14:04:58;;;;;;;2.97;0.90;;;;;;;;;;5080540;28;20202;-62
2023/03/16 14:07:26;;;;;;;4.40;0.87;;;;;;;;;;5080615;28;20268;-62
2023/03/16 14:09:57;;;;;;;0.80;0.73;;;;;;;;;;5080220;28;20260;-61
2023/03/16 14:12:27;;;;;;;0.80;0.50;;;;;;;;;;5080664;28;20230;-62
2023/03/16 14:14:55;;;;;;;1.30;0.80;;;;;;;;;;5080634;28;20244;-62
2023/03/16 14:17:23;;;;;;;0.77;0.77;;;;;;;;;;5079920;28;20206;-62
2023/03/16 14:19:53;;;;;;;2.77;0.90;;;;;;;;;;5080199;28;20257;-62
2023/03/16 14:22:23;;;;;;;2.93;1.20;;;;;;;;;;5080015;28;20237;-62
2023/03/16 14:24:53;;;;;;;2.13;0.70;;;;;;;;;;5079989;28;20209;-61
2023/03/16 14:27:23;;;;;;;1.60;0.80;;;;;;;;;;5080630;28;20638;-61
2023/03/16 14:29:54;;;;;;;2.80;0.90;;;;;;;;;;5080266;28;20289;-62
2023/03/16 14:32:26;;;;;;;2.13;0.70;;;;;;;;;;5080233;28;20241;-61
2023/03/16 14:35:02;;;;;;;3.27;0.70;;;;;;;;;;5080243;28;20272;-62
2023/03/16 14:37:37;;;;;;;1.80;0.80;;;;;;;;;;5080051;28;20275;-62
2023/03/16 14:40:06;;;;;;;2.93;0.90;;;;;;;;;;5079555;28;20222;-61
2023/03/16 14:42:35;;;;;;;2.93;0.90;;;;;;;;;;5080279;28;20242;-61
2023/03/16 14:45:12;;;;;;;1.50;1.00;;;;;;;;;;5080059;28;20205;-61
2023/03/16 14:47:42;;;;;;;1.13;1.00;;;;;;;;;;5079724;28;20238;-61
2023/03/16 14:50:13;;;;;;;1.03;0.70;;;;;;;;;;5079555;28;20313;-62
2023/03/16 14:52:42;;;;;;;2.03;1.50;;;;;;;;;;5076503;28;20253;-61
2023/03/16 14:55:11;;;;;;;1.80;0.90;;;;;;;;;;5070975;28;20304;-62
2023/03/16 14:57:40;;;;;;;2.17;1.03;;;;;;;;;;5079560;28;20695;-61
2023/03/16 15:00:11;;;;;;;1.73;0.90;;;;;;;;;;5079507;28;20275;-62